Time;durP1;ratioP1;P1;durP2;ratioP2;P2;SDS_P1;SDS_P2;PMS_P1;PMS_P2;Temp;Humidity;BMP_temperature;BMP_pressure;BME280_temperature;BME280_humidity;BME280_pressure;Samples;Min_cycle;Max_cycle;Signal;HPM_P1;HPM_P2
2022/10/13 00:01:54;;;;;;;29.98;18.35;;;;;;;;;;5071894;28;20031;-66
2022/10/13 00:04:20;;;;;;;39.50;19.92;;;;;;;;;;5069532;28;20119;-65
2022/10/13 00:06:46;;;;;;;31.23;18.67;;;;;;;;;;5070849;28;20071;-67
2022/10/13 00:09:12;;;;;;;32.03;19.08;;;;;;;;;;5070520;28;20365;-65
2022/10/13 00:11:38;;;;;;;29.05;20.00;;;;;;;;;;5069405;28;20044;-66
2022/10/13 00:14:05;;;;;;;34.67;19.75;;;;;;;;;;5069093;28;20502;-66
2022/10/13 00:16:31;;;;;;;29.70;18.52;;;;;;;;;;5070726;28;20424;-66
2022/10/13 00:18:57;;;;;;;31.63;19.58;;;;;;;;;;5070552;28;20021;-66
2022/10/13 00:21:24;;;;;;;34.20;20.85;;;;;;;;;;5069817;28;20047;-66
2022/10/13 00:23:52;;;;;;;38.55;21.95;;;;;;;;;;5070389;28;20103;-67
2022/10/13 00:26:18;;;;;;;30.73;19.90;;;;;;;;;;5070475;28;20398;-66
2022/10/13 00:28:44;;;;;;;33.53;20.20;;;;;;;;;;5070389;28;20021;-66
2022/10/13 00:31:16;;;;;;;27.95;19.17;;;;;;;;;;5070417;28;20025;-66
2022/10/13 00:33:42;;;;;;;33.17;20.38;;;;;;;;;;5070259;28;20060;-65
2022/10/13 00:36:08;;;;;;;29.67;20.10;;;;;;;;;;5070477;28;20150;-66
2022/10/13 00:38:34;;;;;;;30.13;20.52;;;;;;;;;;5069014;28;20499;-66
2022/10/13 00:41:00;;;;;;;27.95;19.00;;;;;;;;;;5069221;28;20024;-66
2022/10/13 00:43:47;;;;;;;27.45;19.27;;;;;;;;;;5070121;28;20084;-65
2022/10/13 00:46:13;;;;;;;33.67;20.33;;;;;;;;;;5069071;28;20029;-65
2022/10/13 00:48:40;;;;;;;29.13;20.27;;;;;;;;;;5070111;28;20480;-65
2022/10/13 00:51:06;;;;;;;29.98;20.77;;;;;;;;;;5070249;28;20159;-66
2022/10/13 00:53:34;;;;;;;30.65;21.85;;;;;;;;;;5070126;28;20035;-66
2022/10/13 00:56:00;;;;;;;29.23;20.17;;;;;;;;;;5069081;28;20021;-65
2022/10/13 00:58:30;;;;;;;32.38;20.92;;;;;;;;;;5070126;28;20020;-64
2022/10/13 01:00:56;;;;;;;29.90;20.20;;;;;;;;;;5068869;28;20112;-67
2022/10/13 01:03:23;;;;;;;33.50;19.95;;;;;;;;;;5068529;28;20060;-67
2022/10/13 01:05:50;;;;;;;31.08;21.30;;;;;;;;;;5070219;28;20059;-66
2022/10/13 01:08:17;;;;;;;31.30;20.70;;;;;;;;;;5069759;28;20051;-66
2022/10/13 01:11:02;;;;;;;30.70;20.77;;;;;;;;;;5070081;28;20033;-66
2022/10/13 01:13:38;;;;;;;28.85;20.20;;;;;;;;;;5069811;28;20078;-65
2022/10/13 01:16:09;;;;;;;28.50;20.38;;;;;;;;;;5070031;28;20094;-66
2022/10/13 01:18:35;;;;;;;29.75;20.52;;;;;;;;;;5069999;28;20064;-66
2022/10/13 01:21:13;;;;;;;28.67;19.73;;;;;;;;;;5070115;28;20433;-66
2022/10/13 01:23:51;;;;;;;28.40;19.95;;;;;;;;;;5068493;28;20025;-65
2022/10/13 01:26:32;;;;;;;30.33;19.90;;;;;;;;;;5069731;28;20480;-66
2022/10/13 01:29:24;;;;;;;31.55;20.85;;;;;;;;;;5069564;28;20092;-66
2022/10/13 01:31:58;;;;;;;28.33;19.60;;;;;;;;;;5069915;28;20032;-67
2022/10/13 01:34:34;;;;;;;28.45;19.60;;;;;;;;;;5073173;28;20068;-66
2022/10/13 01:37:05;;;;;;;33.58;19.75;;;;;;;;;;5073467;28;20029;-66
2022/10/13 01:39:41;;;;;;;28.83;19.67;;;;;;;;;;5072084;28;20025;-66
2022/10/13 01:42:19;;;;;;;31.85;19.83;;;;;;;;;;5073193;28;20032;-65
2022/10/13 01:44:48;;;;;;;30.08;20.77;;;;;;;;;;5072857;28;20043;-66
2022/10/13 01:47:15;;;;;;;29.67;20.55;;;;;;;;;;5072936;28;20036;-66
2022/10/13 01:49:42;;;;;;;31.52;20.67;;;;;;;;;;5072366;28;20498;-66
2022/10/13 01:52:10;;;;;;;32.53;20.95;;;;;;;;;;5073481;28;20032;-66
2022/10/13 01:54:36;;;;;;;30.58;21.48;;;;;;;;;;5072881;28;20029;-66
2022/10/13 01:57:02;;;;;;;32.20;20.40;;;;;;;;;;5071768;28;20051;-65
2022/10/13 01:59:29;;;;;;;33.08;21.35;;;;;;;;;;5073076;28;20142;-65
2022/10/13 02:02:08;;;;;;;27.52;19.55;;;;;;;;;;5073087;28;20064;-66
2022/10/13 02:04:37;;;;;;;33.63;22.35;;;;;;;;;;5071684;28;20029;-66
2022/10/13 02:07:09;;;;;;;30.30;20.08;;;;;;;;;;5073002;28;20030;-66
2022/10/13 02:09:41;;;;;;;31.45;20.88;;;;;;;;;;5072832;28;20032;-66
2022/10/13 02:12:11;;;;;;;30.42;21.42;;;;;;;;;;5072753;28;20039;-66
2022/10/13 02:14:40;;;;;;;34.53;21.02;;;;;;;;;;5072291;28;20020;-67
2022/10/13 02:17:05;;;;;;;;;;;;;;;;;;5073333;28;20028;-66
2022/10/13 02:19:36;;;;;;;30.90;21.08;;;;;;;;;;5071447;28;19904;-66
2022/10/13 02:22:03;;;;;;;33.60;21.80;;;;;;;;;;5072808;28;20495;-66
2022/10/13 02:24:29;;;;;;;29.90;20.52;;;;;;;;;;5071162;28;20032;-66
2022/10/13 02:26:55;;;;;;;34.10;20.80;;;;;;;;;;5072525;28;20028;-65
2022/10/13 02:29:21;;;;;;;30.40;20.58;;;;;;;;;;5072454;28;20036;-66
2022/10/13 02:31:47;;;;;;;32.10;21.02;;;;;;;;;;5072694;28;20032;-66
2022/10/13 02:34:14;;;;;;;31.48;21.05;;;;;;;;;;5072132;28;20024;-66
2022/10/13 02:36:40;;;;;;;29.48;21.35;;;;;;;;;;5072528;28;20056;-68
2022/10/13 02:39:07;;;;;;;33.00;22.67;;;;;;;;;;5072184;28;20040;-67
2022/10/13 02:41:33;;;;;;;30.40;22.48;;;;;;;;;;5072476;28;20070;-67
2022/10/13 02:43:59;;;;;;;35.92;21.42;;;;;;;;;;5071316;28;20108;-66
2022/10/13 02:46:25;;;;;;;30.00;21.25;;;;;;;;;;5071898;28;20024;-66
2022/10/13 02:48:51;;;;;;;30.95;21.25;;;;;;;;;;5072068;28;20028;-66
2022/10/13 02:51:17;;;;;;;30.50;21.63;;;;;;;;;;5072180;28;20383;-65
2022/10/13 02:53:43;;;;;;;29.20;21.20;;;;;;;;;;5071860;28;20017;-65
2022/10/13 02:56:09;;;;;;;32.38;20.95;;;;;;;;;;5070842;28;20168;-66
2022/10/13 02:58:36;;;;;;;28.13;20.42;;;;;;;;;;5071938;28;20025;-65
2022/10/13 03:01:10;;;;;;;30.85;20.10;;;;;;;;;;5072120;28;20527;-65
2022/10/13 03:03:36;;;;;;;30.33;21.40;;;;;;;;;;5071219;28;20059;-66
2022/10/13 03:06:02;;;;;;;31.70;20.35;;;;;;;;;;5071968;28;20053;-66
2022/10/13 03:08:28;;;;;;;34.25;21.83;;;;;;;;;;5071757;28;20032;-66
2022/10/13 03:10:54;;;;;;;30.88;21.27;;;;;;;;;;5071725;28;20029;-65
2022/10/13 03:13:20;;;;;;;34.95;22.52;;;;;;;;;;5069733;28;20063;-66
2022/10/13 03:15:46;;;;;;;30.63;21.00;;;;;;;;;;5071714;28;20021;-67
2022/10/13 03:18:13;;;;;;;32.72;20.15;;;;;;;;;;5071733;28;20073;-65
2022/10/13 03:20:39;;;;;;;31.55;20.50;;;;;;;;;;5071222;28;20028;-66
2022/10/13 03:23:05;;;;;;;30.33;20.98;;;;;;;;;;5071280;28;20016;-66
2022/10/13 03:25:32;;;;;;;30.48;22.02;;;;;;;;;;5071528;28;20083;-66
2022/10/13 03:27:58;;;;;;;35.45;21.95;;;;;;;;;;5071389;28;20076;-66
2022/10/13 03:30:25;;;;;;;28.45;20.05;;;;;;;;;;5071403;28;20591;-67
2022/10/13 03:32:51;;;;;;;28.08;19.92;;;;;;;;;;5071562;28;20043;-67
2022/10/13 03:35:17;;;;;;;33.75;20.67;;;;;;;;;;5071578;28;20498;-66
2022/10/13 03:37:43;;;;;;;38.25;21.02;;;;;;;;;;5070604;28;20025;-66
2022/10/13 03:40:09;;;;;;;29.45;21.23;;;;;;;;;;5070094;28;20166;-66
2022/10/13 03:42:36;;;;;;;30.17;21.65;;;;;;;;;;5071360;28;20086;-66
2022/10/13 03:45:03;;;;;;;34.92;21.48;;;;;;;;;;5070906;28;20442;-65
2022/10/13 03:47:29;;;;;;;33.88;20.83;;;;;;;;;;5068401;28;20031;-65
2022/10/13 03:49:55;;;;;;;33.63;21.73;;;;;;;;;;5057954;28;20025;-65
2022/10/13 03:52:21;;;;;;;34.35;22.70;;;;;;;;;;5058035;28;20025;-66
2022/10/13 03:54:47;;;;;;;31.85;20.73;;;;;;;;;;5069288;28;20082;-65
2022/10/13 03:57:13;;;;;;;31.55;20.52;;;;;;;;;;5057155;28;20119;-66
2022/10/13 03:59:40;;;;;;;34.72;22.70;;;;;;;;;;5049474;28;20066;-67
2022/10/13 04:02:07;;;;;;;30.58;20.25;;;;;;;;;;5050656;28;20025;-66
2022/10/13 04:04:34;;;;;;;31.58;21.38;;;;;;;;;;5052327;28;20075;-65
2022/10/13 04:07:00;;;;;;;31.60;21.05;;;;;;;;;;5069240;28;20028;-66
2022/10/13 04:09:26;;;;;;;30.40;20.85;;;;;;;;;;5070468;28;20032;-65
2022/10/13 04:11:53;;;;;;;28.55;20.13;;;;;;;;;;5070277;28;20111;-65
2022/10/13 04:14:19;;;;;;;31.85;21.17;;;;;;;;;;5069940;28;20029;-64
2022/10/13 04:16:45;;;;;;;31.17;20.48;;;;;;;;;;5070330;28;20396;-66
2022/10/13 04:19:13;;;;;;;31.02;21.13;;;;;;;;;;5070220;28;20066;-65
2022/10/13 04:21:39;;;;;;;27.50;20.83;;;;;;;;;;5068241;28;20373;-66
2022/10/13 04:24:05;;;;;;;29.25;21.02;;;;;;;;;;5049239;28;20554;-67
2022/10/13 04:26:33;;;;;;;32.58;22.27;;;;;;;;;;5050156;28;20017;-66
2022/10/13 04:28:59;;;;;;;31.20;20.80;;;;;;;;;;5050190;28;20099;-65
2022/10/13 04:31:25;;;;;;;30.33;21.25;;;;;;;;;;5049994;28;20663;-65
2022/10/13 04:33:52;;;;;;;36.90;21.13;;;;;;;;;;5048546;28;20021;-66
2022/10/13 04:36:19;;;;;;;28.85;19.98;;;;;;;;;;5048825;28;20070;-67
2022/10/13 04:38:45;;;;;;;29.33;20.23;;;;;;;;;;5049925;28;20029;-66
2022/10/13 04:41:12;;;;;;;31.15;19.20;;;;;;;;;;5048668;28;20052;-65
2022/10/13 04:43:38;;;;;;;29.55;21.30;;;;;;;;;;5048375;28;20465;-66
2022/10/13 04:46:05;;;;;;;32.60;21.15;;;;;;;;;;5049956;28;20025;-67
2022/10/13 04:48:31;;;;;;;28.90;19.95;;;;;;;;;;5049703;28;20497;-66
2022/10/13 04:50:58;;;;;;;35.33;22.30;;;;;;;;;;5080042;22;20435;-62
2022/10/13 04:53:27;;;;;;;32.97;20.90;;;;;;;;;;5049301;28;20025;-64
2022/10/13 04:55:54;;;;;;;31.38;20.40;;;;;;;;;;5051435;28;20051;-65
2022/10/13 04:58:19;;;;;;;34.13;20.38;;;;;;;;;;5051366;28;20150;-64
2022/10/13 05:00:46;;;;;;;37.05;22.02;;;;;;;;;;5051930;28;20509;-62
2022/10/13 05:03:12;;;;;;;35.05;22.90;;;;;;;;;;5050086;28;20021;-63
2022/10/13 05:05:39;;;;;;;34.53;22.48;;;;;;;;;;5051970;28;20025;-63
2022/10/13 05:08:05;;;;;;;33.63;20.63;;;;;;;;;;5054679;28;20108;-64
2022/10/13 05:10:31;;;;;;;36.80;20.48;;;;;;;;;;5055865;28;20029;-64
2022/10/13 05:12:57;;;;;;;33.10;20.42;;;;;;;;;;5055234;28;20119;-63
2022/10/13 05:15:23;;;;;;;35.00;21.50;;;;;;;;;;5055700;28;20439;-64
2022/10/13 05:17:49;;;;;;;38.13;21.55;;;;;;;;;;5056337;28;20028;-60
2022/10/13 05:20:16;;;;;;;36.45;21.40;;;;;;;;;;5055613;28;20032;-65
2022/10/13 05:22:42;;;;;;;34.25;22.33;;;;;;;;;;5056016;28;20028;-63
2022/10/13 05:25:08;;;;;;;36.75;21.33;;;;;;;;;;5055078;28;20025;-63
2022/10/13 05:27:34;;;;;;;34.75;20.52;;;;;;;;;;5054807;28;20039;-64
2022/10/13 05:30:00;;;;;;;30.80;20.30;;;;;;;;;;5054934;28;20532;-63
2022/10/13 05:32:26;;;;;;;31.90;21.25;;;;;;;;;;5055003;28;20035;-64
2022/10/13 05:34:52;;;;;;;30.30;20.85;;;;;;;;;;5053297;28;20052;-64
2022/10/13 05:37:21;;;;;;;30.83;20.02;;;;;;;;;;5055066;28;20028;-63
2022/10/13 05:39:47;;;;;;;35.78;20.75;;;;;;;;;;5054761;28;20476;-64
2022/10/13 05:42:13;;;;;;;32.55;21.42;;;;;;;;;;5055528;28;20096;-66
2022/10/13 05:44:39;;;;;;;31.15;19.77;;;;;;;;;;5053528;28;20055;-64
2022/10/13 05:47:05;;;;;;;35.03;20.30;;;;;;;;;;5055490;28;20085;-64
2022/10/13 05:49:31;;;;;;;34.78;20.88;;;;;;;;;;5054843;28;20036;-65
2022/10/13 05:52:00;;;;;;;33.90;21.98;;;;;;;;;;5048532;28;20032;-63
2022/10/13 05:54:38;;;;;;;33.88;21.80;;;;;;;;;;5035067;28;20377;-64
2022/10/13 05:57:06;;;;;;;33.97;20.08;;;;;;;;;;5033564;28;20032;-64
2022/10/13 05:59:34;;;;;;;30.92;20.17;;;;;;;;;;5033379;28;20406;-64
2022/10/13 06:02:00;;;;;;;;;;;;;;;;;;5034826;28;20478;-64
2022/10/13 06:04:31;;;;;;;28.38;19.67;;;;;;;;;;5034280;28;19905;-64
2022/10/13 06:06:57;;;;;;;31.80;20.02;;;;;;;;;;5034360;28;20028;-63
2022/10/13 06:09:23;;;;;;;28.88;18.58;;;;;;;;;;5034075;28;20026;-62
2022/10/13 06:11:49;;;;;;;32.33;19.33;;;;;;;;;;5034222;28;20394;-64
2022/10/13 06:14:15;;;;;;;33.92;20.52;;;;;;;;;;5033651;28;20032;-65
2022/10/13 06:16:41;;;;;;;28.15;19.45;;;;;;;;;;5033841;28;20029;-64
2022/10/13 06:19:07;;;;;;;28.98;19.65;;;;;;;;;;5031768;28;20044;-65
2022/10/13 06:21:36;;;;;;;29.20;19.48;;;;;;;;;;5032551;28;20079;-64
2022/10/13 06:24:02;;;;;;;36.00;21.05;;;;;;;;;;5033317;28;20041;-63
2022/10/13 06:26:28;;;;;;;28.20;19.23;;;;;;;;;;5033650;28;20076;-63
2022/10/13 06:28:55;;;;;;;31.85;20.42;;;;;;;;;;5033990;28;20507;-64
2022/10/13 06:31:21;;;;;;;30.30;19.92;;;;;;;;;;5033800;28;20029;-64
2022/10/13 06:33:47;;;;;;;32.67;20.92;;;;;;;;;;5033534;28;20059;-64
2022/10/13 06:36:13;;;;;;;30.42;20.10;;;;;;;;;;5032327;28;20051;-64
2022/10/13 06:38:39;;;;;;;32.38;18.88;;;;;;;;;;5033710;28;20481;-63
2022/10/13 06:41:05;;;;;;;28.83;18.70;;;;;;;;;;5035836;28;20143;-64
2022/10/13 06:43:31;;;;;;;32.80;20.55;;;;;;;;;;5033174;28;20025;-65
2022/10/13 06:45:58;;;;;;;29.48;18.90;;;;;;;;;;5033333;28;20022;-66
2022/10/13 06:48:24;;;;;;;31.70;18.67;;;;;;;;;;5037434;28;20031;-63
2022/10/13 06:50:51;;;;;;;28.08;18.58;;;;;;;;;;5051659;28;20033;-66
2022/10/13 06:53:16;;;;;;;28.48;17.52;;;;;;;;;;5052865;28;20488;-65
2022/10/13 06:55:42;;;;;;;29.75;18.23;;;;;;;;;;5053083;28;20601;-64
2022/10/13 06:58:09;;;;;;;27.52;17.95;;;;;;;;;;5051753;28;20032;-64
2022/10/13 07:00:36;;;;;;;29.63;18.67;;;;;;;;;;5051493;28;20424;-65
2022/10/13 07:03:02;;;;;;;38.28;20.40;;;;;;;;;;5049655;28;20017;-62
2022/10/13 07:05:28;;;;;;;28.63;17.50;;;;;;;;;;5051868;28;20477;-64
2022/10/13 07:07:55;;;;;;;33.10;18.55;;;;;;;;;;5053450;28;20028;-63
2022/10/13 07:10:21;;;;;;;27.13;18.45;;;;;;;;;;5052965;28;20072;-64
2022/10/13 07:12:47;;;;;;;31.02;17.98;;;;;;;;;;5052975;28;20445;-64
2022/10/13 07:15:13;;;;;;;28.80;19.25;;;;;;;;;;5051283;28;20036;-63
2022/10/13 07:17:39;;;;;;;28.20;18.98;;;;;;;;;;5051670;28;20036;-64
2022/10/13 07:20:05;;;;;;;32.75;18.73;;;;;;;;;;5052933;28;20500;-68
2022/10/13 07:22:31;;;;;;;31.45;19.17;;;;;;;;;;5052946;28;20021;-65
2022/10/13 07:24:58;;;;;;;27.27;17.83;;;;;;;;;;5051050;28;20488;-66
2022/10/13 07:27:24;;;;;;;29.33;19.55;;;;;;;;;;5053292;28;20107;-66
2022/10/13 07:29:50;;;;;;;28.52;18.85;;;;;;;;;;5053210;28;20053;-67
2022/10/13 07:32:16;;;;;;;32.60;19.88;;;;;;;;;;5053256;28;20511;-68
2022/10/13 07:34:42;;;;;;;31.52;19.27;;;;;;;;;;5052600;28;20435;-67
2022/10/13 07:37:08;;;;;;;29.13;18.15;;;;;;;;;;5051588;28;20025;-68
2022/10/13 07:39:34;;;;;;;32.97;18.88;;;;;;;;;;5052722;28;20433;-68
2022/10/13 07:42:00;;;;;;;30.40;20.02;;;;;;;;;;5052792;28;20053;-68
2022/10/13 07:44:26;;;;;;;28.70;19.02;;;;;;;;;;5052707;28;20037;-67
2022/10/13 07:46:52;;;;;;;29.00;18.13;;;;;;;;;;5052906;28;20029;-68
2022/10/13 07:49:18;;;;;;;32.88;19.00;;;;;;;;;;5040170;28;20477;-68
2022/10/13 07:51:44;;;;;;;27.13;18.60;;;;;;;;;;5032847;28;20045;-68
2022/10/13 07:54:10;;;;;;;28.08;18.10;;;;;;;;;;5030937;28;20022;-67
2022/10/13 07:56:37;;;;;;;28.90;19.40;;;;;;;;;;5031810;28;20022;-68
2022/10/13 07:59:04;;;;;;;29.73;19.83;;;;;;;;;;5032548;28;20473;-68
2022/10/13 08:01:30;;;;;;;28.10;19.35;;;;;;;;;;5031881;28;20490;-67
2022/10/13 08:03:58;;;;;;;29.17;18.90;;;;;;;;;;5033002;28;20025;-66
2022/10/13 08:06:24;;;;;;;25.85;18.10;;;;;;;;;;5032550;28;20045;-68
2022/10/13 08:08:50;;;;;;;31.33;19.30;;;;;;;;;;5032330;28;20026;-67
2022/10/13 08:11:16;;;;;;;29.15;16.98;;;;;;;;;;5031016;28;20583;-67
2022/10/13 08:13:42;;;;;;;27.08;18.27;;;;;;;;;;5032006;28;20030;-66
2022/10/13 08:16:09;;;;;;;28.15;17.70;;;;;;;;;;5031879;28;20076;-68
2022/10/13 08:18:35;;;;;;;26.88;16.27;;;;;;;;;;5030058;28;20071;-66
2022/10/13 08:21:02;;;;;;;26.35;17.17;;;;;;;;;;5031692;28;20021;-67
2022/10/13 08:23:29;;;;;;;26.73;17.73;;;;;;;;;;5030520;28;20113;-65
2022/10/13 08:25:55;;;;;;;28.92;17.40;;;;;;;;;;5031845;28;20052;-68
2022/10/13 08:28:21;;;;;;;26.48;17.10;;;;;;;;;;5030869;28;20120;-68
2022/10/13 08:30:47;;;;;;;28.83;18.10;;;;;;;;;;5032021;28;20025;-66
2022/10/13 08:33:13;;;;;;;27.77;16.58;;;;;;;;;;5031295;28;20034;-68
2022/10/13 08:35:41;;;;;;;25.25;16.15;;;;;;;;;;5031909;28;20025;-68
2022/10/13 08:38:07;;;;;;;28.80;16.27;;;;;;;;;;5031055;28;20017;-68
2022/10/13 08:40:33;;;;;;;25.48;16.95;;;;;;;;;;5032009;28;20021;-67
2022/10/13 08:43:00;;;;;;;28.15;16.85;;;;;;;;;;5031091;28;20034;-67
2022/10/13 08:45:28;;;;;;;25.08;16.40;;;;;;;;;;5030690;28;20021;-66
2022/10/13 08:47:59;;;;;;;29.00;17.30;;;;;;;;;;5031891;28;20101;-67
2022/10/13 08:50:26;;;;;;;26.10;17.15;;;;;;;;;;5030068;28;20084;-67
2022/10/13 08:52:58;;;;;;;27.30;17.55;;;;;;;;;;5030732;28;20057;-66
2022/10/13 08:55:27;;;;;;;23.77;16.30;;;;;;;;;;5031651;28;20054;-66
2022/10/13 08:57:53;;;;;;;25.95;17.85;;;;;;;;;;5032026;28;20105;-66
2022/10/13 09:00:19;;;;;;;25.23;16.70;;;;;;;;;;5030745;28;20029;-68
2022/10/13 09:02:46;;;;;;;25.55;16.92;;;;;;;;;;5032275;28;20030;-65
2022/10/13 09:05:17;;;;;;;24.02;16.02;;;;;;;;;;5030489;28;20029;-68
2022/10/13 09:07:45;;;;;;;26.23;16.50;;;;;;;;;;5032168;28;20055;-67
2022/10/13 09:10:11;;;;;;;25.33;15.95;;;;;;;;;;5031693;28;20450;-66
2022/10/13 09:12:37;;;;;;;29.92;17.00;;;;;;;;;;5035562;28;20455;-65
2022/10/13 09:15:08;;;;;;;23.90;15.68;;;;;;;;;;5043276;28;20024;-64
2022/10/13 09:17:35;;;;;;;28.15;17.60;;;;;;;;;;5049325;28;20021;-65
2022/10/13 09:20:06;;;;;;;24.92;15.85;;;;;;;;;;5050147;28;20021;-66
2022/10/13 09:22:34;;;;;;;35.60;17.02;;;;;;;;;;5051952;28;20045;-68
2022/10/13 09:25:20;;;;;;;24.77;17.02;;;;;;;;;;5051459;28;20075;-65
2022/10/13 09:27:47;;;;;;;25.73;16.80;;;;;;;;;;5051862;28;20037;-66
2022/10/13 09:30:46;;;;;;;28.35;17.23;;;;;;;;;;5048828;28;20025;-65
2022/10/13 09:33:12;;;;;;;25.30;16.75;;;;;;;;;;5007277;28;20040;-66
2022/10/13 09:35:46;;;;;;;27.65;17.60;;;;;;;;;;5031373;28;20026;-66
2022/10/13 09:38:16;;;;;;;25.52;16.10;;;;;;;;;;5039970;28;20021;-67
2022/10/13 09:40:43;;;;;;;26.52;16.23;;;;;;;;;;5051153;28;20021;-67
2022/10/13 09:43:28;;;;;;;26.70;17.58;;;;;;;;;;5052488;28;20075;-66
2022/10/13 09:45:54;;;;;;;27.58;17.75;;;;;;;;;;5052679;28;20026;-67
2022/10/13 09:48:23;;;;;;;26.55;16.58;;;;;;;;;;5052116;28;20071;-67
2022/10/13 09:50:49;;;;;;;;;;;;;;;;;;5051976;28;20041;-67
2022/10/13 09:53:31;;;;;;;28.35;17.98;;;;;;;;;;5041581;28;20290;-67
2022/10/13 09:56:15;;;;;;;25.83;16.63;;;;;;;;;;5034234;28;20509;-67
2022/10/13 09:58:45;;;;;;;27.35;16.27;;;;;;;;;;5035211;28;20529;-67
2022/10/13 10:01:18;;;;;;;24.35;16.08;;;;;;;;;;5033539;28;20021;-68
2022/10/13 10:03:44;;;;;;;26.75;16.58;;;;;;;;;;5044835;28;20528;-67
2022/10/13 10:06:14;;;;;;;30.13;17.20;;;;;;;;;;5055260;28;20025;-66
2022/10/13 10:08:45;;;;;;;28.10;17.00;;;;;;;;;;5054210;28;20070;-67
2022/10/13 10:11:32;;;;;;;23.88;16.52;;;;;;;;;;5052515;28;20124;-67
2022/10/13 10:13:59;;;;;;;27.30;17.85;;;;;;;;;;5039761;28;20076;-66
2022/10/13 10:16:40;;;;;;;27.20;17.52;;;;;;;;;;5051263;28;20122;-65
2022/10/13 10:19:06;;;;;;;29.25;17.48;;;;;;;;;;5052439;28;20028;-66
2022/10/13 10:21:36;;;;;;;28.45;17.15;;;;;;;;;;5054345;28;20033;-67
2022/10/13 10:24:07;;;;;;;28.20;16.27;;;;;;;;;;5053563;28;20036;-67
2022/10/13 10:26:36;;;;;;;24.92;16.25;;;;;;;;;;5053681;28;20481;-67
2022/10/13 10:29:11;;;;;;;24.63;15.95;;;;;;;;;;5052521;28;20028;-67
2022/10/13 10:31:41;;;;;;;27.20;16.80;;;;;;;;;;5052341;28;20028;-67
2022/10/13 10:34:11;;;;;;;30.80;17.45;;;;;;;;;;5052240;28;20025;-68
2022/10/13 10:36:43;;;;;;;26.67;17.02;;;;;;;;;;5053537;28;20017;-67
2022/10/13 10:39:18;;;;;;;27.55;17.25;;;;;;;;;;5053820;28;20037;-66
2022/10/13 10:41:46;;;;;;;32.05;18.20;;;;;;;;;;5053170;28;20511;-66
2022/10/13 10:44:20;;;;;;;28.23;18.10;;;;;;;;;;5051800;28;20031;-65
2022/10/13 10:46:47;;;;;;;33.05;18.17;;;;;;;;;;5054071;28;20025;-66
2022/10/13 10:49:16;;;;;;;26.13;16.95;;;;;;;;;;5042230;28;20022;-66
2022/10/13 10:51:43;;;;;;;24.77;16.80;;;;;;;;;;5061437;23;20120;-63
2022/10/13 10:54:18;;;;;;;28.33;16.50;;;;;;;;;;5052028;28;20029;-60
2022/10/13 10:56:51;;;;;;;26.33;17.20;;;;;;;;;;5053291;28;20532;-63
2022/10/13 10:59:17;;;;;;;26.98;17.88;;;;;;;;;;5053292;28;20480;-66
2022/10/13 11:02:02;;;;;;;24.02;17.23;;;;;;;;;;5051738;28;20108;-61
2022/10/13 11:04:41;;;;;;;24.85;16.27;;;;;;;;;;5052555;28;20029;-61
2022/10/13 11:07:27;;;;;;;26.33;17.08;;;;;;;;;;5051318;28;20060;-63
2022/10/13 11:09:55;;;;;;;23.08;16.42;;;;;;;;;;5021634;28;20064;-63
2022/10/13 11:12:22;;;;;;;30.23;17.47;;;;;;;;;;5052835;28;20029;-63
2022/10/13 11:14:54;;;;;;;24.88;16.92;;;;;;;;;;5051103;28;20275;-64
2022/10/13 11:17:28;;;;;;;27.00;16.60;;;;;;;;;;5052892;28;20025;-62
2022/10/13 11:19:54;;;;;;;25.65;17.00;;;;;;;;;;5051168;28;20043;-59
2022/10/13 11:22:22;;;;;;;26.98;17.40;;;;;;;;;;5051047;28;20025;-63
2022/10/13 11:24:49;;;;;;;22.47;16.17;;;;;;;;;;5052456;28;20086;-63
2022/10/13 11:27:15;;;;;;;29.50;17.58;;;;;;;;;;5051250;28;20417;-64
2022/10/13 11:29:52;;;;;;;24.40;16.40;;;;;;;;;;5052483;28;20021;-64
2022/10/13 11:32:40;;;;;;;26.23;17.00;;;;;;;;;;5052311;28;20025;-62
2022/10/13 11:35:08;;;;;;;26.40;17.45;;;;;;;;;;5052092;28;20029;-63
2022/10/13 11:38:05;;;;;;;24.92;17.23;;;;;;;;;;5050982;28;20058;-61
2022/10/13 11:40:43;;;;;;;25.23;16.65;;;;;;;;;;5051051;28;20082;-61
2022/10/13 11:43:09;;;;;;;23.42;15.20;;;;;;;;;;5051903;28;20021;-61
2022/10/13 11:45:44;;;;;;;23.88;16.15;;;;;;;;;;5050585;28;20128;-63
2022/10/13 11:48:29;;;;;;;29.15;16.23;;;;;;;;;;5050069;28;20334;-62
2022/10/13 11:50:55;;;;;;;26.77;16.77;;;;;;;;;;5031678;28;20117;-62
2022/10/13 11:53:26;;;;;;;24.58;15.90;;;;;;;;;;5031687;28;20061;-63
2022/10/13 11:55:57;;;;;;;25.70;15.60;;;;;;;;;;5032093;28;20022;-64
2022/10/13 11:58:23;;;;;;;25.10;14.90;;;;;;;;;;5030288;28;20017;-62
2022/10/13 12:01:05;;;;;;;23.70;15.32;;;;;;;;;;5044942;28;20546;-62
2022/10/13 12:03:31;;;;;;;24.30;15.63;;;;;;;;;;5043154;28;20075;-63
2022/10/13 12:06:02;;;;;;;24.05;15.35;;;;;;;;;;5040399;28;20072;-61
2022/10/13 12:08:29;;;;;;;23.20;15.50;;;;;;;;;;5032025;28;20045;-61
2022/10/13 12:10:57;;;;;;;24.30;16.67;;;;;;;;;;5031722;28;20052;-65
2022/10/13 12:13:27;;;;;;;21.33;14.45;;;;;;;;;;5031669;28;20021;-61
2022/10/13 12:16:06;;;;;;;24.88;15.60;;;;;;;;;;5029944;28;20076;-61
2022/10/13 12:18:35;;;;;;;23.40;14.65;;;;;;;;;;5030712;28;20025;-63
2022/10/13 12:21:03;;;;;;;26.27;15.40;;;;;;;;;;5031487;28;20026;-61
2022/10/13 12:23:30;;;;;;;22.65;14.55;;;;;;;;;;5030869;28;20029;-62
2022/10/13 12:25:57;;;;;;;21.65;14.13;;;;;;;;;;5031373;28;20448;-61
2022/10/13 12:28:25;;;;;;;23.35;14.93;;;;;;;;;;5031342;28;20098;-64
2022/10/13 12:30:56;;;;;;;25.83;14.88;;;;;;;;;;5031248;28;20029;-59
2022/10/13 12:33:25;;;;;;;24.15;14.85;;;;;;;;;;5031316;28;20160;-60
2022/10/13 12:35:51;;;;;;;25.05;15.20;;;;;;;;;;5031590;28;20079;-62
2022/10/13 12:38:19;;;;;;;25.95;14.68;;;;;;;;;;5031264;28;20105;-60
2022/10/13 12:40:48;;;;;;;21.33;14.88;;;;;;;;;;5031259;28;20164;-60
2022/10/13 12:43:24;;;;;;;24.40;14.98;;;;;;;;;;5030920;28;20025;-63
2022/10/13 12:45:50;;;;;;;25.10;14.05;;;;;;;;;;5031379;28;20447;-57
2022/10/13 12:48:36;;;;;;;20.42;14.30;;;;;;;;;;5030969;28;20029;-62
2022/10/13 12:51:15;;;;;;;21.40;13.68;;;;;;;;;;5030968;28;20041;-62
2022/10/13 12:53:41;;;;;;;19.70;13.68;;;;;;;;;;5031507;28;20029;-62
2022/10/13 12:56:17;;;;;;;21.27;13.35;;;;;;;;;;5031291;28;20204;-61
2022/10/13 12:58:43;;;;;;;23.02;13.82;;;;;;;;;;5031079;28;20025;-61
2022/10/13 13:01:12;;;;;;;21.27;13.18;;;;;;;;;;5031321;28;20033;-62
2022/10/13 13:03:39;;;;;;;23.00;13.32;;;;;;;;;;5031041;28;20028;-60
2022/10/13 13:06:08;;;;;;;18.73;12.32;;;;;;;;;;5031560;28;20358;-61
2022/10/13 13:08:34;;;;;;;30.65;13.65;;;;;;;;;;5031486;28;20025;-61
2022/10/13 13:11:05;;;;;;;20.30;12.95;;;;;;;;;;5036719;28;20063;-62
2022/10/13 13:13:32;;;;;;;22.48;13.48;;;;;;;;;;5049510;28;20397;-62
2022/10/13 13:16:14;;;;;;;22.27;13.05;;;;;;;;;;5051120;28;20025;-59
2022/10/13 13:18:41;;;;;;;19.42;12.88;;;;;;;;;;5051162;28;20028;-60
2022/10/13 13:21:17;;;;;;;21.42;12.82;;;;;;;;;;5050708;28;20025;-60
2022/10/13 13:23:46;;;;;;;21.13;12.70;;;;;;;;;;5050859;28;20048;-61
2022/10/13 13:26:13;;;;;;;21.35;12.95;;;;;;;;;;5044911;28;20436;-63
2022/10/13 13:28:42;;;;;;;19.85;12.52;;;;;;;;;;5041563;28;20116;-63
2022/10/13 13:31:09;;;;;;;19.92;12.60;;;;;;;;;;5042717;28;20029;-62
2022/10/13 13:33:35;;;;;;;20.90;12.07;;;;;;;;;;5034481;28;20603;-64
2022/10/13 13:36:01;;;;;;;20.52;12.55;;;;;;;;;;5033249;28;20086;-61
2022/10/13 13:38:27;;;;;;;24.13;13.48;;;;;;;;;;5032927;28;20025;-63
2022/10/13 13:40:53;;;;;;;22.63;13.70;;;;;;;;;;5032994;28;20396;-63
2022/10/13 13:43:19;;;;;;;23.17;13.93;;;;;;;;;;4689758;28;10000125;-60
2022/10/13 13:45:45;;;;;;;25.70;15.38;;;;;;;;;;5033110;28;20478;-59
2022/10/13 13:48:12;;;;;;;23.10;14.02;;;;;;;;;;5038195;28;20388;-63
2022/10/13 13:50:38;;;;;;;21.27;14.30;;;;;;;;;;5045497;28;20029;-59
2022/10/13 13:53:04;;;;;;;27.50;17.15;;;;;;;;;;5033393;28;20030;-60
2022/10/13 13:55:31;;;;;;;25.20;14.43;;;;;;;;;;5031284;28;20033;-63
2022/10/13 13:57:57;;;;;;;22.13;14.70;;;;;;;;;;5030088;28;20154;-61
2022/10/13 14:00:23;;;;;;;26.95;14.27;;;;;;;;;;5040476;28;20075;-62
2022/10/13 14:02:50;;;;;;;25.60;15.27;;;;;;;;;;5052012;28;20047;-63
2022/10/13 14:05:16;;;;;;;26.63;15.90;;;;;;;;;;5051546;28;20029;-62
2022/10/13 14:07:42;;;;;;;24.63;15.80;;;;;;;;;;5051612;28;20032;-63
2022/10/13 14:10:09;;;;;;;27.42;16.98;;;;;;;;;;5051429;28;20071;-62
2022/10/13 14:12:35;;;;;;;30.02;15.32;;;;;;;;;;5051117;28;20057;-62
2022/10/13 14:15:01;;;;;;;24.75;16.15;;;;;;;;;;5050724;28;20091;-62
2022/10/13 14:17:27;;;;;;;24.60;16.40;;;;;;;;;;5051033;28;20033;-63
2022/10/13 14:19:53;;;;;;;24.33;16.10;;;;;;;;;;5050907;28;20025;-63
2022/10/13 14:22:20;;;;;;;26.05;17.83;;;;;;;;;;5049651;28;20574;-63
2022/10/13 14:24:46;;;;;;;25.20;17.80;;;;;;;;;;5050790;28;20087;-64
2022/10/13 14:27:12;;;;;;;26.02;17.98;;;;;;;;;;5050801;28;20033;-58